OAL114 LSZA-LGAV
Flight info
| Callsign | OAL114 |
|---|---|
| Flight time | 2h 5m |
| Altitude | FL390 |
| Route | SRN BOA ANC VIE BCS NOSTO UN7 NEMES |
| Aircraft | B737/M-SDE3FGHIRWY/LB1 |
Departure
| Time | 2026-04-20 16:16 |
|---|---|
| Airport | Lugano Airport (LSZA) |
Arrival
| Time | 2026-04-20 18:21 |
|---|---|
| Airport | Athens Eleftherios Venizelos International Airport (LGAV) |
| Time | Latitude | Longitude | Altitude | Speed | Heading |
|---|---|---|---|---|---|
| 2026-04-20 15:54 | 46.00243 | 8.90807 | 923 ft | 0 kts | 19° |
| 2026-04-20 16:09 | 46.00250 | 8.90810 | 928 ft | 2 kts | 19° |
| 2026-04-20 16:09 | 46.00262 | 8.90821 | 925 ft | 2 kts | 47° |
| 2026-04-20 16:10 | 46.00264 | 8.90852 | 926 ft | 4 kts | 88° |
| 2026-04-20 16:10 | 46.00292 | 8.90881 | 923 ft | 6 kts | 20° |
| 2026-04-20 16:10 | 46.00341 | 8.90905 | 923 ft | 9 kts | 18° |
| 2026-04-20 16:10 | 46.00405 | 8.90935 | 926 ft | 11 kts | 18° |
| 2026-04-20 16:11 | 46.00455 | 8.90986 | 925 ft | 6 kts | 94° |
| 2026-04-20 16:11 | 46.00454 | 8.90992 | 923 ft | 0 kts | 101° |
| 2026-04-20 16:11 | 46.00453 | 8.90997 | 923 ft | 1 kts | 104° |
| 2026-04-20 16:12 | 46.00448 | 8.91017 | 926 ft | 3 kts | 108° |
| 2026-04-20 16:12 | 46.00445 | 8.91050 | 924 ft | 4 kts | 81° |
| 2026-04-20 16:12 | 46.00481 | 8.91090 | 925 ft | 8 kts | 19° |
| 2026-04-20 16:12 | 46.00546 | 8.91119 | 924 ft | 12 kts | 17° |
| 2026-04-20 16:13 | 46.00638 | 8.91158 | 922 ft | 16 kts | 17° |
| 2026-04-20 16:13 | 46.00752 | 8.91219 | 921 ft | 18 kts | 21° |
| 2026-04-20 16:13 | 46.00865 | 8.91278 | 921 ft | 17 kts | 19° |
| 2026-04-20 16:13 | 46.00973 | 8.91327 | 923 ft | 16 kts | 17° |
| 2026-04-20 16:14 | 46.01043 | 8.91331 | 925 ft | 5 kts | 19° |
| 2026-04-20 16:14 | 46.01035 | 8.91358 | 924 ft | 3 kts | 187° |
| 2026-04-20 16:14 | 46.01019 | 8.91350 | 921 ft | 0 kts | 200° |
| 2026-04-20 16:15 | 46.00929 | 8.91303 | 922 ft | 48 kts | 199° |
| 2026-04-20 16:15 | 46.00314 | 8.91003 | 928 ft | 135 kts | 198° |
| 2026-04-20 16:15 | 45.99283 | 8.90502 | 1479 ft | 159 kts | 199° |
| 2026-04-20 16:16 | 45.98266 | 8.89892 | 2584 ft | 161 kts | 206° |
| 2026-04-20 16:16 | 45.97223 | 8.89150 | 3314 ft | 180 kts | 206° |
| 2026-04-20 16:16 | 45.96015 | 8.88301 | 3717 ft | 205 kts | 206° |
| 2026-04-20 16:16 | 45.94658 | 8.87384 | 4141 ft | 227 kts | 206° |
| 2026-04-20 16:17 | 45.93125 | 8.86489 | 4486 ft | 254 kts | 191° |
| 2026-04-20 16:17 | 45.91332 | 8.86664 | 5204 ft | 267 kts | 167° |
| 2026-04-20 16:17 | 45.89480 | 8.86967 | 6045 ft | 275 kts | 189° |
| 2026-04-20 16:17 | 45.87647 | 8.86294 | 7069 ft | 274 kts | 193° |
| 2026-04-20 16:18 | 45.85732 | 8.86244 | 7895 ft | 284 kts | 166° |
| 2026-04-20 16:18 | 45.83916 | 8.87406 | 8798 ft | 290 kts | 152° |
| 2026-04-20 16:18 | 45.82130 | 8.88804 | 9663 ft | 297 kts | 152° |
| 2026-04-20 16:18 | 45.80299 | 8.90235 | 10399 ft | 308 kts | 153° |
| 2026-04-20 16:19 | 45.78330 | 8.91745 | 10629 ft | 335 kts | 153° |
| 2026-04-20 16:19 | 45.76227 | 8.93338 | 11227 ft | 348 kts | 154° |
| 2026-04-20 16:19 | 45.74069 | 8.94971 | 12013 ft | 355 kts | 154° |
| 2026-04-20 16:19 | 45.71877 | 8.96644 | 12840 ft | 361 kts | 154° |
| 2026-04-20 16:20 | 45.69645 | 8.98350 | 13665 ft | 368 kts | 154° |
| 2026-04-20 16:20 | 45.67368 | 9.00087 | 14419 ft | 374 kts | 154° |
| 2026-04-20 16:20 | 45.65099 | 9.01958 | 15214 ft | 382 kts | 145° |
| 2026-04-20 16:20 | 45.63268 | 9.04750 | 16037 ft | 391 kts | 127° |
| 2026-04-20 16:21 | 45.61718 | 9.07965 | 16847 ft | 398 kts | 125° |
| 2026-04-20 16:21 | 45.60181 | 9.11280 | 17581 ft | 405 kts | 125° |
| 2026-04-20 16:21 | 45.58630 | 9.14658 | 18356 ft | 410 kts | 125° |
| 2026-04-20 16:21 | 45.57055 | 9.18075 | 19071 ft | 415 kts | 125° |
| 2026-04-20 16:22 | 45.55455 | 9.21520 | 19803 ft | 419 kts | 125° |
| 2026-04-20 16:22 | 45.53832 | 9.24987 | 20542 ft | 423 kts | 126° |
| 2026-04-20 16:22 | 45.52186 | 9.28484 | 21251 ft | 428 kts | 126° |
| 2026-04-20 16:22 | 45.50513 | 9.32019 | 21943 ft | 433 kts | 126° |
| 2026-04-20 16:23 | 45.48822 | 9.35583 | 22635 ft | 437 kts | 126° |
| 2026-04-20 16:23 | 45.47111 | 9.39182 | 23464 ft | 442 kts | 126° |
| 2026-04-20 16:23 | 45.45380 | 9.42817 | 24042 ft | 447 kts | 126° |
| 2026-04-20 16:23 | 45.43631 | 9.46485 | 24583 ft | 451 kts | 126° |
| 2026-04-20 16:24 | 45.41864 | 9.50186 | 25128 ft | 455 kts | 126° |
| 2026-04-20 16:24 | 45.40080 | 9.53919 | 25646 ft | 459 kts | 126° |
| 2026-04-20 16:24 | 45.38278 | 9.57686 | 26154 ft | 464 kts | 126° |
| 2026-04-20 16:24 | 45.36457 | 9.61485 | 26631 ft | 468 kts | 126° |
| 2026-04-20 16:25 | 45.34620 | 9.65314 | 27129 ft | 472 kts | 126° |
| 2026-04-20 16:25 | 45.32767 | 9.69172 | 27613 ft | 476 kts | 126° |
| 2026-04-20 16:25 | 45.30896 | 9.73060 | 28085 ft | 479 kts | 126° |
| 2026-04-20 16:25 | 45.29010 | 9.76976 | 28539 ft | 483 kts | 126° |
| 2026-04-20 16:26 | 45.27111 | 9.80913 | 28969 ft | 487 kts | 126° |
| 2026-04-20 16:26 | 45.25188 | 9.84893 | 29377 ft | 491 kts | 126° |
| 2026-04-20 16:26 | 45.23252 | 9.88895 | 29786 ft | 495 kts | 126° |
| 2026-04-20 16:26 | 45.21301 | 9.92922 | 30145 ft | 498 kts | 126° |
| 2026-04-20 16:27 | 45.19336 | 9.96974 | 30478 ft | 501 kts | 126° |
| 2026-04-20 16:27 | 45.17358 | 10.01046 | 30808 ft | 504 kts | 126° |
| 2026-04-20 16:27 | 45.15368 | 10.05137 | 31131 ft | 507 kts | 126° |
| 2026-04-20 16:27 | 45.13364 | 10.09250 | 31420 ft | 510 kts | 126° |
| 2026-04-20 16:28 | 45.11347 | 10.13383 | 31686 ft | 512 kts | 126° |
| 2026-04-20 16:28 | 45.09321 | 10.17530 | 32018 ft | 514 kts | 126° |
| 2026-04-20 16:28 | 45.07292 | 10.21678 | 32407 ft | 513 kts | 126° |
| 2026-04-20 16:28 | 45.05265 | 10.25816 | 32830 ft | 512 kts | 126° |
| 2026-04-20 16:29 | 45.03240 | 10.29943 | 33226 ft | 512 kts | 127° |
| 2026-04-20 16:29 | 45.01214 | 10.34067 | 33583 ft | 512 kts | 127° |
| 2026-04-20 16:29 | 44.99184 | 10.38191 | 33922 ft | 512 kts | 127° |
| 2026-04-20 16:29 | 44.97150 | 10.42318 | 34182 ft | 513 kts | 126° |
| 2026-04-20 16:30 | 44.95112 | 10.46445 | 34494 ft | 513 kts | 127° |
| 2026-04-20 16:30 | 44.93079 | 10.50559 | 34847 ft | 511 kts | 127° |
| 2026-04-20 16:30 | 44.91053 | 10.54653 | 35208 ft | 509 kts | 127° |
| 2026-04-20 16:30 | 44.89033 | 10.58730 | 35512 ft | 508 kts | 127° |
| 2026-04-20 16:31 | 44.87016 | 10.62792 | 35867 ft | 505 kts | 127° |
| 2026-04-20 16:31 | 44.85010 | 10.66829 | 36235 ft | 503 kts | 127° |
| 2026-04-20 16:31 | 44.83007 | 10.70851 | 36538 ft | 502 kts | 127° |
| 2026-04-20 16:31 | 44.81004 | 10.74870 | 36770 ft | 503 kts | 127° |
| 2026-04-20 16:32 | 44.78997 | 10.78889 | 37020 ft | 503 kts | 127° |
| 2026-04-20 16:32 | 44.76992 | 10.82900 | 37313 ft | 501 kts | 127° |
| 2026-04-20 16:32 | 44.74992 | 10.86896 | 37615 ft | 500 kts | 127° |
| 2026-04-20 16:32 | 44.72995 | 10.90880 | 37881 ft | 499 kts | 127° |
| 2026-04-20 16:33 | 44.70999 | 10.94856 | 38140 ft | 498 kts | 127° |
| 2026-04-20 16:33 | 44.69005 | 10.98824 | 38407 ft | 497 kts | 127° |
| 2026-04-20 16:33 | 44.67013 | 11.02781 | 38641 ft | 497 kts | 127° |
| 2026-04-20 16:33 | 44.65021 | 11.06733 | 38800 ft | 496 kts | 127° |
| 2026-04-20 16:34 | 44.63030 | 11.10678 | 38921 ft | 497 kts | 127° |
| 2026-04-20 16:34 | 44.61032 | 11.14632 | 38927 ft | 498 kts | 127° |
| 2026-04-20 16:34 | 44.57035 | 11.22528 | 38933 ft | 496 kts | 127° |
| 2026-04-20 16:35 | 44.53083 | 11.30398 | 38879 ft | 494 kts | 124° |
| 2026-04-20 16:35 | 44.49536 | 11.38604 | 38889 ft | 493 kts | 121° |
| 2026-04-20 16:36 | 44.46124 | 11.46910 | 38897 ft | 493 kts | 121° |
| 2026-04-20 16:36 | 44.42682 | 11.55188 | 38909 ft | 493 kts | 122° |
| 2026-04-20 16:37 | 44.39193 | 11.63444 | 38907 ft | 495 kts | 122° |
| 2026-04-20 16:37 | 44.35676 | 11.71702 | 38937 ft | 496 kts | 122° |
| 2026-04-20 16:38 | 44.32139 | 11.79980 | 38932 ft | 498 kts | 122° |
| 2026-04-20 16:38 | 44.28584 | 11.88281 | 38921 ft | 500 kts | 122° |
| 2026-04-20 16:39 | 44.25013 | 11.96601 | 38916 ft | 502 kts | 122° |
| 2026-04-20 16:39 | 44.21426 | 12.04932 | 38915 ft | 502 kts | 122° |
| 2026-04-20 16:40 | 44.17830 | 12.13262 | 38914 ft | 503 kts | 122° |
| 2026-04-20 16:40 | 44.14227 | 12.21581 | 38910 ft | 502 kts | 122° |
| 2026-04-20 16:41 | 44.10625 | 12.29877 | 38910 ft | 501 kts | 122° |
| 2026-04-20 16:41 | 44.07024 | 12.38144 | 38909 ft | 500 kts | 122° |
| 2026-04-20 16:42 | 44.03426 | 12.46382 | 38886 ft | 499 kts | 122° |
| 2026-04-20 16:42 | 43.99830 | 12.54590 | 38884 ft | 498 kts | 122° |
| 2026-04-20 16:43 | 43.96236 | 12.62772 | 38886 ft | 497 kts | 122° |
| 2026-04-20 16:43 | 43.92642 | 12.70931 | 38884 ft | 496 kts | 123° |
| 2026-04-20 16:44 | 43.89045 | 12.79073 | 38882 ft | 496 kts | 123° |
| 2026-04-20 16:44 | 43.85443 | 12.87203 | 38893 ft | 496 kts | 123° |
| 2026-04-20 16:45 | 43.81835 | 12.95324 | 38905 ft | 496 kts | 123° |
| 2026-04-20 16:45 | 43.78217 | 13.03445 | 38905 ft | 497 kts | 123° |
| 2026-04-20 16:46 | 43.74590 | 13.11564 | 38908 ft | 498 kts | 123° |
| 2026-04-20 16:46 | 43.70950 | 13.19691 | 38897 ft | 499 kts | 123° |
| 2026-04-20 16:47 | 43.67298 | 13.27822 | 38888 ft | 499 kts | 123° |
| 2026-04-20 16:47 | 43.63636 | 13.35952 | 38883 ft | 500 kts | 123° |
| 2026-04-20 16:48 | 43.59969 | 13.44074 | 38879 ft | 500 kts | 123° |
| 2026-04-20 16:48 | 43.55911 | 13.51789 | 38918 ft | 497 kts | 132° |
| 2026-04-20 16:49 | 43.51376 | 13.58952 | 38910 ft | 497 kts | 134° |
| 2026-04-20 16:49 | 43.46811 | 13.66080 | 38913 ft | 497 kts | 133° |
| 2026-04-20 16:50 | 43.42283 | 13.73246 | 38918 ft | 497 kts | 133° |
| 2026-04-20 16:50 | 43.37777 | 13.80429 | 38909 ft | 497 kts | 133° |
| 2026-04-20 16:51 | 43.33274 | 13.87603 | 38923 ft | 496 kts | 133° |
| 2026-04-20 16:51 | 43.28769 | 13.94760 | 38932 ft | 496 kts | 133° |
| 2026-04-20 16:52 | 43.24257 | 14.01903 | 38930 ft | 496 kts | 133° |
| 2026-04-20 16:52 | 43.19742 | 14.09034 | 38930 ft | 496 kts | 133° |
| 2026-04-20 16:53 | 43.15224 | 14.16151 | 38926 ft | 496 kts | 133° |
| 2026-04-20 16:53 | 43.10704 | 14.23254 | 38937 ft | 495 kts | 133° |
| 2026-04-20 16:54 | 43.06183 | 14.30342 | 38934 ft | 495 kts | 133° |
| 2026-04-20 16:54 | 43.01658 | 14.37419 | 38935 ft | 495 kts | 133° |
| 2026-04-20 16:55 | 42.97130 | 14.44483 | 38932 ft | 495 kts | 133° |
| 2026-04-20 16:55 | 42.92598 | 14.51536 | 38934 ft | 495 kts | 133° |
| 2026-04-20 16:56 | 42.88063 | 14.58576 | 38924 ft | 495 kts | 133° |
| 2026-04-20 16:56 | 42.83529 | 14.65598 | 38938 ft | 494 kts | 133° |
| 2026-04-20 16:57 | 42.78993 | 14.72607 | 38938 ft | 494 kts | 133° |
| 2026-04-20 16:57 | 42.74452 | 14.79606 | 38937 ft | 494 kts | 133° |
| 2026-04-20 16:58 | 42.69907 | 14.86595 | 38940 ft | 494 kts | 134° |
| 2026-04-20 16:58 | 42.65357 | 14.93574 | 38948 ft | 494 kts | 134° |
| 2026-04-20 16:59 | 42.60799 | 15.00549 | 38931 ft | 495 kts | 134° |
| 2026-04-20 16:59 | 42.56231 | 15.07521 | 38933 ft | 496 kts | 134° |
| 2026-04-20 17:00 | 42.49355 | 15.17987 | 38934 ft | 497 kts | 134° |
| 2026-04-20 17:01 | 42.44755 | 15.24968 | 38928 ft | 498 kts | 134° |
| 2026-04-20 17:01 | 42.40141 | 15.31952 | 38929 ft | 499 kts | 134° |
| 2026-04-20 17:02 | 42.35518 | 15.38934 | 38919 ft | 499 kts | 134° |
| 2026-04-20 17:02 | 42.30889 | 15.45909 | 38925 ft | 500 kts | 134° |
| 2026-04-20 17:03 | 42.26254 | 15.52877 | 38921 ft | 500 kts | 134° |
| 2026-04-20 17:03 | 42.21614 | 15.59836 | 38921 ft | 500 kts | 134° |
| 2026-04-20 17:04 | 42.16970 | 15.66782 | 38944 ft | 499 kts | 134° |
| 2026-04-20 17:04 | 42.12329 | 15.73710 | 38937 ft | 499 kts | 134° |
| 2026-04-20 17:05 | 42.07692 | 15.80615 | 38953 ft | 497 kts | 134° |
| 2026-04-20 17:05 | 42.03060 | 15.87496 | 38961 ft | 497 kts | 134° |
| 2026-04-20 17:06 | 41.98432 | 15.94355 | 38940 ft | 496 kts | 134° |
| 2026-04-20 17:06 | 41.93808 | 16.01197 | 38944 ft | 495 kts | 134° |
| 2026-04-20 17:07 | 41.89207 | 16.08056 | 38956 ft | 496 kts | 133° |
| 2026-04-20 17:07 | 41.84725 | 16.15060 | 38943 ft | 495 kts | 132° |
| 2026-04-20 17:08 | 41.80270 | 16.22082 | 38953 ft | 495 kts | 132° |
| 2026-04-20 17:08 | 41.75804 | 16.29068 | 38955 ft | 495 kts | 132° |
| 2026-04-20 17:09 | 41.71318 | 16.36038 | 38970 ft | 495 kts | 132° |
| 2026-04-20 17:09 | 41.66831 | 16.42984 | 38957 ft | 495 kts | 133° |
| 2026-04-20 17:10 | 41.62332 | 16.49933 | 38954 ft | 495 kts | 133° |
| 2026-04-20 17:10 | 41.57831 | 16.56870 | 38957 ft | 495 kts | 133° |
| 2026-04-20 17:11 | 41.53325 | 16.63801 | 38956 ft | 495 kts | 133° |
| 2026-04-20 17:11 | 41.48812 | 16.70726 | 38963 ft | 496 kts | 133° |
| 2026-04-20 17:12 | 41.44295 | 16.77642 | 38958 ft | 496 kts | 133° |
| 2026-04-20 17:12 | 41.39772 | 16.84550 | 38950 ft | 496 kts | 133° |
| 2026-04-20 17:13 | 41.35247 | 16.91445 | 38947 ft | 495 kts | 133° |
| 2026-04-20 17:13 | 41.30719 | 16.98329 | 38954 ft | 495 kts | 133° |
| 2026-04-20 17:14 | 41.26188 | 17.05203 | 38971 ft | 495 kts | 133° |
| 2026-04-20 17:14 | 41.21649 | 17.12071 | 38966 ft | 496 kts | 133° |
| 2026-04-20 17:15 | 41.17103 | 17.18936 | 38959 ft | 496 kts | 133° |
| 2026-04-20 17:15 | 41.12550 | 17.25795 | 38969 ft | 496 kts | 133° |
| 2026-04-20 17:16 | 41.07995 | 17.32642 | 38953 ft | 497 kts | 133° |
| 2026-04-20 17:16 | 41.03432 | 17.39485 | 38964 ft | 496 kts | 133° |
| 2026-04-20 17:17 | 40.98867 | 17.46316 | 38972 ft | 496 kts | 133° |
| 2026-04-20 17:17 | 40.94299 | 17.53136 | 38965 ft | 496 kts | 133° |
| 2026-04-20 17:18 | 40.89731 | 17.59941 | 38970 ft | 496 kts | 133° |
| 2026-04-20 17:18 | 40.85162 | 17.66731 | 38969 ft | 495 kts | 133° |
| 2026-04-20 17:19 | 40.80594 | 17.73506 | 38954 ft | 495 kts | 133° |
| 2026-04-20 17:19 | 40.76028 | 17.80262 | 38979 ft | 494 kts | 133° |
| 2026-04-20 17:20 | 40.71463 | 17.87003 | 38965 ft | 494 kts | 133° |
| 2026-04-20 17:20 | 40.66897 | 17.93732 | 38968 ft | 493 kts | 133° |
| 2026-04-20 17:21 | 40.62124 | 18.00174 | 38973 ft | 492 kts | 137° |
| 2026-04-20 17:21 | 40.57167 | 18.06351 | 38969 ft | 492 kts | 138° |
| 2026-04-20 17:22 | 40.52204 | 18.12516 | 38961 ft | 492 kts | 138° |
| 2026-04-20 17:22 | 40.47265 | 18.18703 | 38976 ft | 492 kts | 138° |
| 2026-04-20 17:23 | 40.42331 | 18.24899 | 38977 ft | 492 kts | 138° |
| 2026-04-20 17:23 | 40.37392 | 18.31094 | 38976 ft | 492 kts | 138° |
| 2026-04-20 17:24 | 40.32444 | 18.37284 | 38975 ft | 493 kts | 138° |
| 2026-04-20 17:24 | 40.27489 | 18.43467 | 38967 ft | 493 kts | 138° |
| 2026-04-20 17:25 | 40.22529 | 18.49643 | 38979 ft | 493 kts | 138° |
| 2026-04-20 17:25 | 40.17566 | 18.55810 | 38993 ft | 493 kts | 138° |
| 2026-04-20 17:26 | 40.12599 | 18.61970 | 39001 ft | 493 kts | 138° |
| 2026-04-20 17:26 | 40.07628 | 18.68120 | 39000 ft | 493 kts | 138° |
| 2026-04-20 17:27 | 40.02655 | 18.74261 | 38997 ft | 493 kts | 138° |
| 2026-04-20 17:27 | 39.97682 | 18.80388 | 39011 ft | 492 kts | 138° |
| 2026-04-20 17:28 | 39.92711 | 18.86501 | 39009 ft | 492 kts | 138° |
| 2026-04-20 17:28 | 39.87741 | 18.92601 | 39008 ft | 492 kts | 138° |
| 2026-04-20 17:29 | 39.82773 | 18.98691 | 39010 ft | 492 kts | 137° |
| 2026-04-20 17:29 | 39.78436 | 19.05531 | 39019 ft | 492 kts | 126° |
| 2026-04-20 17:30 | 39.74477 | 19.12765 | 39029 ft | 492 kts | 126° |
| 2026-04-20 17:30 | 39.70510 | 19.19987 | 39011 ft | 492 kts | 126° |
| 2026-04-20 17:31 | 39.66499 | 19.27175 | 39021 ft | 492 kts | 126° |
| 2026-04-20 17:31 | 39.62472 | 19.34333 | 39022 ft | 492 kts | 126° |
| 2026-04-20 17:32 | 39.58436 | 19.41485 | 39022 ft | 493 kts | 126° |
| 2026-04-20 17:32 | 39.54399 | 19.48629 | 39030 ft | 493 kts | 126° |
| 2026-04-20 17:33 | 39.50351 | 19.55779 | 39027 ft | 493 kts | 127° |
| 2026-04-20 17:33 | 39.46298 | 19.62921 | 39016 ft | 493 kts | 127° |
| 2026-04-20 17:34 | 39.42242 | 19.70055 | 38997 ft | 493 kts | 127° |
| 2026-04-20 17:34 | 39.38183 | 19.77176 | 39017 ft | 493 kts | 127° |
| 2026-04-20 17:35 | 39.34123 | 19.84284 | 39032 ft | 492 kts | 127° |
| 2026-04-20 17:35 | 39.30058 | 19.91383 | 39024 ft | 493 kts | 127° |
| 2026-04-20 17:36 | 39.25990 | 19.98474 | 39029 ft | 492 kts | 127° |
| 2026-04-20 17:36 | 39.21919 | 20.05554 | 39035 ft | 492 kts | 127° |
| 2026-04-20 17:37 | 39.17845 | 20.12624 | 39037 ft | 492 kts | 127° |
| 2026-04-20 17:37 | 39.13770 | 20.19683 | 39042 ft | 492 kts | 127° |
| 2026-04-20 17:38 | 39.09701 | 20.26733 | 39027 ft | 492 kts | 127° |
| 2026-04-20 17:38 | 39.05650 | 20.33792 | 39036 ft | 491 kts | 127° |
| 2026-04-20 17:39 | 39.01600 | 20.40839 | 39046 ft | 491 kts | 127° |
| 2026-04-20 17:39 | 38.97544 | 20.47873 | 39055 ft | 491 kts | 127° |
| 2026-04-20 17:40 | 38.93483 | 20.54900 | 39041 ft | 491 kts | 127° |
| 2026-04-20 17:40 | 38.89418 | 20.61919 | 39045 ft | 491 kts | 127° |
| 2026-04-20 17:41 | 38.85341 | 20.68922 | 39022 ft | 491 kts | 127° |
| 2026-04-20 17:41 | 38.81228 | 20.75888 | 39027 ft | 491 kts | 127° |
| 2026-04-20 17:42 | 38.77105 | 20.82845 | 39051 ft | 491 kts | 128° |
| 2026-04-20 17:42 | 38.72980 | 20.89804 | 39047 ft | 491 kts | 128° |
| 2026-04-20 17:43 | 38.68851 | 20.96760 | 39040 ft | 492 kts | 128° |
| 2026-04-20 17:43 | 38.64719 | 21.03709 | 39050 ft | 492 kts | 128° |
| 2026-04-20 17:44 | 38.60580 | 21.10655 | 39042 ft | 492 kts | 128° |
| 2026-04-20 17:44 | 38.56436 | 21.17594 | 39047 ft | 492 kts | 128° |
| 2026-04-20 17:45 | 38.52293 | 21.24517 | 39040 ft | 491 kts | 128° |
| 2026-04-20 17:45 | 38.48153 | 21.31419 | 39029 ft | 490 kts | 128° |
| 2026-04-20 17:46 | 38.44018 | 21.38298 | 39038 ft | 489 kts | 128° |
| 2026-04-20 17:46 | 38.39887 | 21.45156 | 39044 ft | 488 kts | 128° |
| 2026-04-20 17:47 | 38.35757 | 21.51998 | 39046 ft | 488 kts | 128° |
| 2026-04-20 17:47 | 38.31627 | 21.58826 | 39045 ft | 487 kts | 128° |
| 2026-04-20 17:48 | 38.27493 | 21.65645 | 39044 ft | 487 kts | 128° |
| 2026-04-20 17:48 | 38.23355 | 21.72458 | 39043 ft | 488 kts | 128° |
| 2026-04-20 17:49 | 38.19209 | 21.79269 | 39058 ft | 488 kts | 128° |
| 2026-04-20 17:49 | 38.15051 | 21.86086 | 39032 ft | 489 kts | 128° |
| 2026-04-20 17:50 | 38.10883 | 21.92906 | 39047 ft | 490 kts | 128° |
| 2026-04-20 17:50 | 38.06705 | 21.99727 | 39054 ft | 491 kts | 128° |
| 2026-04-20 17:51 | 38.02517 | 22.06550 | 39044 ft | 491 kts | 128° |
| 2026-04-20 17:51 | 37.98320 | 22.13374 | 39043 ft | 492 kts | 128° |
| 2026-04-20 17:52 | 37.94116 | 22.20195 | 39036 ft | 492 kts | 128° |
| 2026-04-20 17:52 | 37.89911 | 22.27004 | 39038 ft | 492 kts | 129° |
| 2026-04-20 17:53 | 37.85704 | 22.33803 | 39030 ft | 491 kts | 129° |
| 2026-04-20 17:53 | 37.81498 | 22.40585 | 39021 ft | 491 kts | 129° |
| 2026-04-20 17:54 | 37.77293 | 22.47354 | 39026 ft | 490 kts | 129° |
| 2026-04-20 17:54 | 37.73084 | 22.54114 | 39016 ft | 490 kts | 129° |
| 2026-04-20 17:55 | 37.69304 | 22.61217 | 39003 ft | 490 kts | 114° |
| 2026-04-20 17:55 | 37.67912 | 22.65174 | 38487 ft | 498 kts | 113° |
| 2026-04-20 17:55 | 37.66544 | 22.69179 | 37857 ft | 497 kts | 112° |
| 2026-04-20 17:55 | 37.65180 | 22.73160 | 37198 ft | 494 kts | 112° |
| 2026-04-20 17:56 | 37.63805 | 22.77117 | 36551 ft | 493 kts | 113° |
| 2026-04-20 17:56 | 37.62416 | 22.81052 | 35896 ft | 492 kts | 113° |
| 2026-04-20 17:56 | 37.61016 | 22.84978 | 35161 ft | 492 kts | 113° |
| 2026-04-20 17:56 | 37.59605 | 22.88908 | 34420 ft | 494 kts | 112° |
| 2026-04-20 17:57 | 37.58187 | 22.92851 | 33540 ft | 496 kts | 112° |
| 2026-04-20 17:57 | 37.56766 | 22.96796 | 32886 ft | 492 kts | 112° |
| 2026-04-20 17:57 | 37.55362 | 23.00692 | 32303 ft | 487 kts | 112° |
| 2026-04-20 17:57 | 37.53973 | 23.04544 | 31759 ft | 481 kts | 112° |
| 2026-04-20 17:58 | 37.52599 | 23.08352 | 31198 ft | 476 kts | 112° |
| 2026-04-20 17:58 | 37.51240 | 23.12118 | 30677 ft | 470 kts | 112° |
| 2026-04-20 17:58 | 37.49900 | 23.15824 | 30151 ft | 463 kts | 112° |
| 2026-04-20 17:58 | 37.48604 | 23.19486 | 29546 ft | 454 kts | 108° |
| 2026-04-20 17:59 | 37.47922 | 23.23293 | 29017 ft | 441 kts | 89° |
| 2026-04-20 17:59 | 37.48030 | 23.27085 | 28502 ft | 430 kts | 80° |
| 2026-04-20 17:59 | 37.48331 | 23.30802 | 27936 ft | 426 kts | 79° |
| 2026-04-20 17:59 | 37.48655 | 23.34480 | 27402 ft | 421 kts | 79° |
| 2026-04-20 18:00 | 37.48975 | 23.38123 | 26896 ft | 418 kts | 79° |
| 2026-04-20 18:00 | 37.49281 | 23.41740 | 26362 ft | 415 kts | 79° |
| 2026-04-20 18:00 | 37.49573 | 23.45337 | 25850 ft | 413 kts | 80° |
| 2026-04-20 18:00 | 37.49853 | 23.48915 | 25324 ft | 410 kts | 80° |
| 2026-04-20 18:01 | 37.50126 | 23.52473 | 24812 ft | 408 kts | 80° |
| 2026-04-20 18:01 | 37.50394 | 23.56012 | 24297 ft | 406 kts | 80° |
| 2026-04-20 18:01 | 37.50658 | 23.59533 | 23778 ft | 404 kts | 81° |
| 2026-04-20 18:01 | 37.50921 | 23.63044 | 23191 ft | 403 kts | 81° |
| 2026-04-20 18:02 | 37.51180 | 23.66538 | 22620 ft | 400 kts | 81° |
| 2026-04-20 18:02 | 37.51437 | 23.70006 | 22083 ft | 397 kts | 81° |
| 2026-04-20 18:02 | 37.51691 | 23.73444 | 21567 ft | 393 kts | 81° |
| 2026-04-20 18:02 | 37.51941 | 23.76855 | 21058 ft | 391 kts | 81° |
| 2026-04-20 18:03 | 37.52190 | 23.80242 | 20546 ft | 388 kts | 81° |
| 2026-04-20 18:03 | 37.52435 | 23.83606 | 20038 ft | 385 kts | 81° |
| 2026-04-20 18:03 | 37.52679 | 23.86949 | 19539 ft | 383 kts | 81° |
| 2026-04-20 18:03 | 37.52920 | 23.90273 | 19041 ft | 381 kts | 82° |
| 2026-04-20 18:04 | 37.53158 | 23.93578 | 18548 ft | 379 kts | 82° |
| 2026-04-20 18:04 | 37.53395 | 23.96872 | 17971 ft | 378 kts | 82° |
| 2026-04-20 18:04 | 37.53630 | 24.00150 | 17419 ft | 375 kts | 82° |
| 2026-04-20 18:04 | 37.53863 | 24.03413 | 16791 ft | 375 kts | 82° |
| 2026-04-20 18:05 | 37.54322 | 24.09892 | 15745 ft | 369 kts | 83° |
| 2026-04-20 18:05 | 37.54548 | 24.13091 | 15241 ft | 366 kts | 83° |
| 2026-04-20 18:05 | 37.54771 | 24.16261 | 14748 ft | 363 kts | 83° |
| 2026-04-20 18:06 | 37.54991 | 24.19404 | 14260 ft | 360 kts | 83° |
| 2026-04-20 18:06 | 37.55253 | 24.22512 | 13760 ft | 355 kts | 76° |
| 2026-04-20 18:06 | 37.56181 | 24.25326 | 13223 ft | 346 kts | 52° |
| 2026-04-20 18:06 | 37.57815 | 24.27450 | 12723 ft | 334 kts | 31° |
| 2026-04-20 18:07 | 37.59859 | 24.28737 | 12203 ft | 326 kts | 14° |
| 2026-04-20 18:07 | 37.62056 | 24.29219 | 11679 ft | 319 kts | 358° |
| 2026-04-20 18:07 | 37.64251 | 24.29090 | 11200 ft | 315 kts | 353° |
| 2026-04-20 18:07 | 37.66420 | 24.28835 | 10712 ft | 313 kts | 352° |
| 2026-04-20 18:08 | 37.68569 | 24.28563 | 10349 ft | 307 kts | 352° |
| 2026-04-20 18:08 | 37.70639 | 24.28310 | 10213 ft | 293 kts | 352° |
| 2026-04-20 18:08 | 37.72611 | 24.28080 | 10065 ft | 276 kts | 352° |
| 2026-04-20 18:08 | 37.74474 | 24.27869 | 9870 ft | 266 kts | 352° |
| 2026-04-20 18:09 | 37.76308 | 24.27665 | 9534 ft | 263 kts | 353° |
| 2026-04-20 18:09 | 37.78123 | 24.27466 | 9187 ft | 262 kts | 353° |
| 2026-04-20 18:09 | 37.79928 | 24.27270 | 8824 ft | 260 kts | 352° |
| 2026-04-20 18:09 | 37.81722 | 24.27075 | 8502 ft | 258 kts | 352° |
| 2026-04-20 18:10 | 37.83503 | 24.26882 | 8168 ft | 256 kts | 352° |
| 2026-04-20 18:10 | 37.85272 | 24.26691 | 7849 ft | 255 kts | 352° |
| 2026-04-20 18:10 | 37.87030 | 24.26501 | 7521 ft | 254 kts | 352° |
| 2026-04-20 18:10 | 37.88781 | 24.26312 | 7195 ft | 252 kts | 353° |
| 2026-04-20 18:11 | 37.90524 | 24.26123 | 6872 ft | 252 kts | 353° |
| 2026-04-20 18:11 | 37.92262 | 24.25935 | 6542 ft | 251 kts | 353° |
| 2026-04-20 18:11 | 37.93996 | 24.25748 | 6208 ft | 250 kts | 352° |
| 2026-04-20 18:11 | 37.95725 | 24.25560 | 5895 ft | 248 kts | 353° |
| 2026-04-20 18:12 | 37.97405 | 24.25379 | 5776 ft | 238 kts | 353° |
| 2026-04-20 18:12 | 37.99024 | 24.25205 | 5653 ft | 230 kts | 352° |
| 2026-04-20 18:12 | 38.00545 | 24.24761 | 5401 ft | 221 kts | 333° |
| 2026-04-20 18:12 | 38.01898 | 24.23970 | 5179 ft | 210 kts | 333° |
| 2026-04-20 18:13 | 38.03204 | 24.23231 | 4911 ft | 202 kts | 333° |
| 2026-04-20 18:13 | 38.04467 | 24.22525 | 4657 ft | 196 kts | 333° |
| 2026-04-20 18:13 | 38.05692 | 24.21838 | 4411 ft | 190 kts | 330° |
| 2026-04-20 18:13 | 38.06738 | 24.20912 | 4203 ft | 179 kts | 317° |
| 2026-04-20 18:14 | 38.07681 | 24.19906 | 4053 ft | 175 kts | 317° |
| 2026-04-20 18:14 | 38.08606 | 24.18925 | 3961 ft | 174 kts | 317° |
| 2026-04-20 18:14 | 38.09505 | 24.17904 | 3872 ft | 173 kts | 304° |
| 2026-04-20 18:14 | 38.09865 | 24.16505 | 3814 ft | 168 kts | 275° |
| 2026-04-20 18:15 | 38.09988 | 24.15015 | 3745 ft | 173 kts | 275° |
| 2026-04-20 18:15 | 38.10112 | 24.13466 | 3524 ft | 177 kts | 275° |
| 2026-04-20 18:15 | 38.10233 | 24.11928 | 3313 ft | 173 kts | 275° |
| 2026-04-20 18:15 | 38.10350 | 24.10429 | 3111 ft | 171 kts | 274° |
| 2026-04-20 18:16 | 38.10097 | 24.08993 | 2999 ft | 171 kts | 230° |
| 2026-04-20 18:16 | 38.09169 | 24.08074 | 3007 ft | 171 kts | 220° |
| 2026-04-20 18:16 | 38.08228 | 24.07170 | 3001 ft | 169 kts | 220° |
| 2026-04-20 18:16 | 38.07283 | 24.06266 | 3004 ft | 173 kts | 220° |
| 2026-04-20 18:17 | 38.06321 | 24.05354 | 3012 ft | 171 kts | 219° |
| 2026-04-20 18:17 | 38.05393 | 24.04473 | 2899 ft | 165 kts | 220° |
| 2026-04-20 18:17 | 38.04495 | 24.03620 | 2700 ft | 159 kts | 220° |
| 2026-04-20 18:17 | 38.03627 | 24.02796 | 2507 ft | 154 kts | 220° |
| 2026-04-20 18:18 | 38.02776 | 24.01987 | 2300 ft | 151 kts | 219° |
| 2026-04-20 18:18 | 38.01953 | 24.01205 | 2095 ft | 146 kts | 219° |
| 2026-04-20 18:18 | 38.01155 | 24.00447 | 1920 ft | 142 kts | 219° |
| 2026-04-20 18:18 | 38.00393 | 23.99722 | 1723 ft | 134 kts | 218° |
| 2026-04-20 18:19 | 37.99661 | 23.99027 | 1553 ft | 130 kts | 217° |
| 2026-04-20 18:19 | 37.98937 | 23.98339 | 1383 ft | 131 kts | 218° |
| 2026-04-20 18:19 | 37.98199 | 23.97637 | 1214 ft | 134 kts | 217° |
| 2026-04-20 18:19 | 37.97466 | 23.96940 | 1031 ft | 129 kts | 217° |
| 2026-04-20 18:20 | 37.96753 | 23.96259 | 805 ft | 131 kts | 216° |
| 2026-04-20 18:20 | 37.96010 | 23.95563 | 715 ft | 135 kts | 218° |
| 2026-04-20 18:20 | 37.95263 | 23.94832 | 544 ft | 136 kts | 217° |
| 2026-04-20 18:20 | 37.94495 | 23.94115 | 372 ft | 138 kts | 217° |
| 2026-04-20 18:21 | 37.93739 | 23.93406 | 295 ft | 129 kts | 217° |
| 2026-04-20 18:21 | 37.93182 | 23.92869 | 288 ft | 70 kts | 217° |
| 2026-04-20 18:21 | 37.92958 | 23.92657 | 292 ft | 22 kts | 216° |
| 2026-04-20 18:21 | 37.92828 | 23.92557 | 298 ft | 22 kts | 194° |
| 2026-04-20 18:22 | 37.92699 | 23.92523 | 299 ft | 16 kts | 189° |
| 2026-04-20 18:22 | 37.92612 | 23.92540 | 300 ft | 12 kts | 130° |
| 2026-04-20 18:22 | 37.92627 | 23.92630 | 301 ft | 12 kts | 32° |
| 2026-04-20 18:22 | 37.92694 | 23.92688 | 301 ft | 12 kts | 36° |
| 2026-04-20 18:23 | 37.92763 | 23.92755 | 301 ft | 14 kts | 37° |
| 2026-04-20 18:23 | 37.92847 | 23.92835 | 298 ft | 16 kts | 36° |
| 2026-04-20 18:23 | 37.92938 | 23.92919 | 298 ft | 16 kts | 37° |
| 2026-04-20 18:23 | 37.93025 | 23.93001 | 298 ft | 15 kts | 37° |
| 2026-04-20 18:24 | 37.93111 | 23.93084 | 297 ft | 16 kts | 37° |
| 2026-04-20 18:24 | 37.93201 | 23.93168 | 299 ft | 16 kts | 36° |
| 2026-04-20 18:24 | 37.93228 | 23.93276 | 298 ft | 15 kts | 119° |
| 2026-04-20 18:24 | 37.93254 | 23.93363 | 299 ft | 14 kts | 34° |